createdAt,value
2023-10-31T00:03:33.978Z,8.6
2023-10-31T00:09:09.051Z,8.6
2023-10-31T00:14:53.145Z,8.7
2023-10-31T00:25:38.186Z,8.9
2023-10-31T00:31:16.142Z,9
2023-10-31T00:36:44.777Z,9.1
2023-10-31T00:42:13.753Z,9.2
2023-10-31T00:47:59.589Z,9.3
2023-10-31T00:53:36.015Z,9.4
2023-10-31T00:59:03.395Z,9.4
2023-10-31T01:04:19.571Z,9.5
2023-10-31T01:09:47.365Z,9.4
2023-10-31T01:15:19.024Z,9.3
2023-10-31T01:21:02.330Z,9.4
2023-10-31T01:26:25.116Z,9.5
2023-10-31T01:31:56.484Z,9.3
2023-10-31T01:37:28.486Z,9.7
2023-10-31T01:42:58.452Z,10
2023-10-31T01:48:42.617Z,9.9
2023-10-31T01:54:06.758Z,10
2023-10-31T01:59:37.012Z,9.9
2023-10-31T02:05:34.033Z,9.7
2023-10-31T02:10:44.486Z,9.7
2023-10-31T02:16:42.378Z,9.6
2023-10-31T02:21:54.897Z,9.5
2023-10-31T02:27:30.280Z,9.8
2023-10-31T02:33:00.069Z,9.7
2023-10-31T02:38:43.934Z,9.7
2023-10-31T02:44:06.861Z,9.8
2023-10-31T02:49:46.718Z,9.9
2023-10-31T02:55:21.218Z,9.8
2023-10-31T03:06:23.988Z,9.8
2023-10-31T03:11:37.969Z,9.5
2023-10-31T03:17:11.312Z,9.4
2023-10-31T03:22:51.251Z,9.5
2023-10-31T03:28:30.238Z,9.1
2023-10-31T03:34:11.318Z,9.1
2023-10-31T03:39:19.875Z,9.4
2023-10-31T03:44:53.252Z,9.6
2023-10-31T03:56:02.589Z,9.6
2023-10-31T04:01:43.371Z,9.7
2023-10-31T04:07:03.808Z,9.4
2023-10-31T04:12:35.133Z,9.4
2023-10-31T04:18:06.730Z,9.3
2023-10-31T04:23:40.099Z,9.3
2023-10-31T04:29:34.066Z,9.4
2023-10-31T04:34:45.360Z,9.3
2023-10-31T04:40:20.163Z,9.2
2023-10-31T04:51:16.148Z,9.2
2023-10-31T04:56:49.077Z,9.1
2023-10-31T05:02:26.064Z,9
2023-10-31T05:08:03.631Z,9
2023-10-31T05:13:36.513Z,8.9
2023-10-31T05:19:20.895Z,9
2023-10-31T05:24:40.352Z,8.9
2023-10-31T05:30:24.183Z,8.9
2023-10-31T05:41:21.136Z,8.8
2023-10-31T05:46:49.156Z,8.8
2023-10-31T05:52:06.469Z,8.8
2023-10-31T05:57:46.314Z,8.9
2023-10-31T06:03:24.360Z,9
2023-10-31T06:09:01.140Z,9
2023-10-31T06:14:39.169Z,9.1
2023-10-31T06:19:57.698Z,9.1
2023-10-31T06:25:22.185Z,9.1
2023-10-31T06:31:19.493Z,9.2
2023-10-31T06:36:33.781Z,9.2
2023-10-31T06:41:58.980Z,9.2
2023-10-31T06:47:37.662Z,9.3
2023-10-31T06:53:06.215Z,9.4
2023-10-31T06:58:44.188Z,9.4
2023-10-31T07:04:35.618Z,9.5
2023-10-31T07:09:50.278Z,9.5
2023-10-31T07:15:23.518Z,9.5
2023-10-31T07:20:56.609Z,9.5
2023-10-31T07:26:34.341Z,9.5
2023-10-31T07:31:54.449Z,9.6
2023-10-31T07:37:23.278Z,9.7
2023-10-31T07:42:59.312Z,9.8
2023-10-31T07:48:46.189Z,9.9
2023-10-31T07:54:06.504Z,10.1
2023-10-31T07:59:59.193Z,10.1
2023-10-31T08:05:13.609Z,10.1
2023-10-31T08:10:50.027Z,10.2
2023-10-31T08:16:28.328Z,10.1
2023-10-31T08:21:59.758Z,10.2
2023-10-31T08:27:34.974Z,10.3
2023-10-31T08:33:04.206Z,10.4
2023-10-31T08:38:41.098Z,10.4
2023-10-31T08:44:20.149Z,10.5
2023-10-31T08:49:39.732Z,10.6
2023-10-31T08:55:12.635Z,10.8
2023-10-31T09:00:39.147Z,11
2023-10-31T09:06:06.945Z,11.1
2023-10-31T09:11:41.804Z,11.2
2023-10-31T09:17:17.850Z,11.2
2023-10-31T09:22:59.247Z,11.1
2023-10-31T09:28:40.581Z,11.1
2023-10-31T09:34:02.311Z,11.2
2023-10-31T09:39:47.091Z,11.2
2023-10-31T09:45:12.186Z,11.2
2023-10-31T09:50:34.237Z,11.4
2023-10-31T09:56:05.797Z,11.3
2023-10-31T10:02:00.020Z,11.2
2023-10-31T10:07:21.223Z,11.1
2023-10-31T10:12:42.961Z,11.1
2023-10-31T10:18:39.467Z,11.4
2023-10-31T10:24:07.891Z,11.6
2023-10-31T10:29:33.406Z,11.5
2023-10-31T10:35:01.039Z,11.5
2023-10-31T10:46:19.996Z,11.9
2023-10-31T10:51:51.825Z,12
2023-10-31T10:57:24.799Z,12.2
2023-10-31T11:02:43.324Z,12
2023-10-31T11:08:32.885Z,12
2023-10-31T11:14:13.388Z,12.2
2023-10-31T11:19:33.653Z,11.8
2023-10-31T11:25:22.789Z,11.5
2023-10-31T11:30:45.185Z,11.6
2023-10-31T11:36:24.253Z,11.3
2023-10-31T11:41:36.732Z,11.1
2023-10-31T11:47:18.918Z,11.1
2023-10-31T11:52:54.935Z,11.1
2023-10-31T11:58:23.853Z,10.9
2023-10-31T12:03:50.917Z,10.8
2023-10-31T12:09:42.349Z,10.7
2023-10-31T12:15:08.152Z,10.7
2023-10-31T12:26:01.310Z,10.6
2023-10-31T12:31:49.333Z,10.5
2023-10-31T12:37:31.171Z,10.5
2023-10-31T12:43:03.949Z,10.4
2023-10-31T12:48:26.422Z,10.4
2023-10-31T12:54:06.163Z,10.4
2023-10-31T12:59:19.562Z,10.4
2023-10-31T13:05:07.407Z,10.3
2023-10-31T13:10:36.143Z,10.2
2023-10-31T13:16:11.182Z,9.9
2023-10-31T13:21:36.439Z,9.8
2023-10-31T13:27:18.448Z,9.8
2023-10-31T13:32:59.690Z,9.8
2023-10-31T13:38:07.472Z,9.9
2023-10-31T13:43:50.604Z,9.9
2023-10-31T13:49:20.324Z,9.9
2023-10-31T13:54:56.003Z,10
2023-10-31T14:00:34.523Z,10
2023-10-31T14:05:57.815Z,10.1
2023-10-31T14:11:49.152Z,10.2
2023-10-31T14:17:04.281Z,10.3
2023-10-31T14:22:54.206Z,10.4
2023-10-31T14:28:24.370Z,10.5
2023-10-31T14:33:47.820Z,10.5
2023-10-31T14:39:27.153Z,10.6
2023-10-31T14:45:04.706Z,10.7
2023-10-31T15:01:38.238Z,10.7
2023-10-31T15:07:08.666Z,10.7
2023-10-31T15:12:27.792Z,10.8
2023-10-31T15:18:11.420Z,10.8
2023-10-31T15:23:44.006Z,10.7
2023-10-31T15:29:16.716Z,10.7
2023-10-31T15:34:54.120Z,10.7
2023-10-31T15:40:20.023Z,10.8
2023-10-31T15:45:44.884Z,10.8
2023-10-31T15:51:14.571Z,10.7
2023-10-31T15:57:08.571Z,10.6
2023-10-31T16:02:35.890Z,10.6
2023-10-31T16:07:59.457Z,10.6
2023-10-31T16:13:25.645Z,10.6
2023-10-31T16:19:15.975Z,10.6
2023-10-31T16:24:34.238Z,10.6
2023-10-31T16:30:16.994Z,10.6
2023-10-31T16:35:51.071Z,10.6
2023-10-31T16:41:28.820Z,10.7
2023-10-31T16:46:47.089Z,10.7
2023-10-31T16:52:20.607Z,10.7
2023-10-31T16:57:48.478Z,10.8
2023-10-31T17:03:46.525Z,10.7
2023-10-31T17:09:02.927Z,10.7
2023-10-31T17:14:29.795Z,10.7
2023-10-31T17:20:16.470Z,10.6
2023-10-31T17:25:48.562Z,10.4
2023-10-31T17:31:11.988Z,10.4
2023-10-31T17:36:52.350Z,10.5
2023-10-31T17:42:18.179Z,10.5
2023-10-31T17:47:54.774Z,10.6
2023-10-31T17:53:23.235Z,10.6
2023-10-31T17:59:07.976Z,10.6
2023-10-31T18:04:23.809Z,10.7
2023-10-31T18:10:15.911Z,10.6
2023-10-31T18:15:27.195Z,10.5
2023-10-31T18:21:15.303Z,10.4
2023-10-31T18:26:39.771Z,10.4
2023-10-31T18:32:08.052Z,10.5
2023-10-31T18:37:36.388Z,10.5
2023-10-31T18:43:19.889Z,10.5
2023-10-31T18:48:52.404Z,10.5
2023-10-31T18:54:33.118Z,10.4
2023-10-31T19:00:03.411Z,10.3
2023-10-31T19:10:56.015Z,10.3
2023-10-31T19:16:35.077Z,10.2
2023-10-31T19:22:09.470Z,10.1
2023-10-31T19:27:35.506Z,10
2023-10-31T19:33:14.531Z,9.9
2023-10-31T19:38:34.484Z,9.9
2023-10-31T19:44:01.079Z,9.9
2023-10-31T19:49:57.644Z,9.9
2023-10-31T19:55:06.568Z,9.9
2023-10-31T20:06:30.983Z,9.5
2023-10-31T20:11:45.908Z,9.2
2023-10-31T20:17:36.820Z,8.9
2023-10-31T20:22:52.892Z,8.9
2023-10-31T20:28:18.215Z,8.7
2023-10-31T20:34:12.723Z,8.6
2023-10-31T20:39:23.145Z,8.5
2023-10-31T20:45:03.590Z,8.6
2023-10-31T21:01:29.786Z,8
2023-10-31T21:07:21.494Z,8
2023-10-31T21:12:27.327Z,7.9
2023-10-31T21:18:03.420Z,7.8
2023-10-31T21:23:42.866Z,7.7
2023-10-31T21:29:21.801Z,7.9
2023-10-31T21:34:53.296Z,7.7
2023-10-31T21:51:26.682Z,7.7
2023-10-31T21:56:44.711Z,7.6
2023-10-31T22:02:12.367Z,7.6
2023-10-31T22:07:59.277Z,7.5
2023-10-31T22:13:41.263Z,7.6
2023-10-31T22:18:49.406Z,7.5
2023-10-31T22:24:32.310Z,7.5
2023-10-31T22:30:07.072Z,7.7
2023-10-31T22:41:17.184Z,7.1
2023-10-31T22:46:26.285Z,7.3
2023-10-31T22:52:21.124Z,7.2
2023-10-31T22:57:36.189Z,7.3
2023-10-31T23:03:06.646Z,6.9
2023-10-31T23:08:54.190Z,6.7
2023-10-31T23:14:23.722Z,6.5
2023-10-31T23:20:00.135Z,6.5
2023-10-31T23:25:12.614Z,6.6
2023-10-31T23:36:29.210Z,6.3
2023-10-31T23:41:44.359Z,6
2023-10-31T23:47:24.233Z,6.2
2023-10-31T23:52:52.514Z,6.3
2023-10-31T23:58:30.765Z,6.2
